createdAt,value
2018-04-13T00:00:06.624Z,54.30
2018-04-13T00:01:06.642Z,55.50
2018-04-13T00:02:06.656Z,56.10
2018-04-13T00:03:06.674Z,55.60
2018-04-13T00:04:06.689Z,57.50
2018-04-13T00:05:06.707Z,57.40
2018-04-13T00:06:06.721Z,55.50
2018-04-13T00:07:06.737Z,55.50
2018-04-13T00:08:06.752Z,55.30
2018-04-13T00:09:06.768Z,56.70
2018-04-13T00:10:06.789Z,56.30
2018-04-13T00:11:06.805Z,56.10
2018-04-13T00:12:06.816Z,56.40
2018-04-13T00:13:06.833Z,55.90
2018-04-13T00:14:06.856Z,56.80
2018-04-13T00:15:06.867Z,56.50
2018-04-13T00:16:06.884Z,56.50
2018-04-13T00:17:06.900Z,54.70
2018-04-13T00:18:06.914Z,55.60
2018-04-13T00:19:06.931Z,55.10
2018-04-13T00:20:06.947Z,56.10
2018-04-13T00:21:06.967Z,56.90
2018-04-13T00:22:06.980Z,57.20
2018-04-13T00:23:06.997Z,56.20
2018-04-13T00:24:07.013Z,56.80
2018-04-13T00:25:07.031Z,57.60
2018-04-13T00:26:07.046Z,56.70
2018-04-13T00:27:07.062Z,56.80
2018-04-13T00:28:07.078Z,56.80
2018-04-13T00:29:07.096Z,56.20
2018-04-13T00:30:07.112Z,58.70
2018-04-13T00:31:07.127Z,58.50
2018-04-13T00:32:07.150Z,60.00
2018-04-13T00:33:07.160Z,58.80
2018-04-13T00:34:07.177Z,59.50
2018-04-13T00:35:07.194Z,59.40
2018-04-13T00:36:07.209Z,59.60
2018-04-13T00:37:07.225Z,57.80
2018-04-13T00:38:07.242Z,60.20
2018-04-13T00:39:07.260Z,60.70
2018-04-13T00:40:07.277Z,60.60
2018-04-13T00:41:07.290Z,59.80
2018-04-13T00:42:07.310Z,59.80
2018-04-13T00:43:07.321Z,59.30
2018-04-13T00:44:07.340Z,57.60
2018-04-13T00:45:07.355Z,59.90
2018-04-13T00:46:07.371Z,59.70
2018-04-13T00:47:07.387Z,59.90
2018-04-13T00:48:07.405Z,61.30
2018-04-13T00:49:07.419Z,59.40
2018-04-13T00:50:07.437Z,62.40
2018-04-13T00:51:07.452Z,61.10
2018-04-13T00:52:07.470Z,60.30
2018-04-13T00:53:07.484Z,60.80
2018-04-13T00:54:07.502Z,59.40
2018-04-13T00:55:07.520Z,59.40
2018-04-13T00:56:07.554Z,60.70
2018-04-13T00:57:07.547Z,60.60
2018-04-13T00:58:07.566Z,59.70
2018-04-13T00:59:07.583Z,63.90
2018-04-13T01:00:07.601Z,62.20
2018-04-13T01:01:07.614Z,62.50
2018-04-13T01:02:07.629Z,60.30
2018-04-13T01:03:07.647Z,62.60
2018-04-13T01:04:07.665Z,63.50
2018-04-13T01:05:07.677Z,62.20
2018-04-13T01:06:07.695Z,62.80
2018-04-13T01:07:07.724Z,60.20
2018-04-13T01:08:07.728Z,59.80
2018-04-13T01:09:07.746Z,62.00
2018-04-13T01:10:07.759Z,61.00
2018-04-13T01:11:07.779Z,63.50
2018-04-13T01:12:07.794Z,60.20
2018-04-13T01:13:07.807Z,60.70
2018-04-13T01:14:07.824Z,61.90
2018-04-13T01:15:07.841Z,61.80
2018-04-13T01:16:07.864Z,61.70
2018-04-13T01:17:07.879Z,60.60
2018-04-13T01:18:07.889Z,61.70
2018-04-13T01:19:07.908Z,59.20
2018-04-13T01:20:07.922Z,60.00
2018-04-13T01:21:07.936Z,60.10
2018-04-13T01:22:07.952Z,60.80
2018-04-13T01:23:07.969Z,60.30
2018-04-13T01:24:07.988Z,62.90
2018-04-13T01:25:08.007Z,61.50
2018-04-13T01:26:08.023Z,60.40
2018-04-13T01:27:08.037Z,61.70
2018-04-13T01:28:08.053Z,60.10
2018-04-13T01:29:08.068Z,61.00
2018-04-13T01:30:08.084Z,60.10
2018-04-13T01:31:08.100Z,59.80
2018-04-13T01:32:08.116Z,59.30
2018-04-13T01:33:08.138Z,60.50
2018-04-13T01:34:08.148Z,60.00
2018-04-13T01:35:08.168Z,62.40
2018-04-13T01:36:08.181Z,61.00
2018-04-13T01:37:08.198Z,60.00
2018-04-13T01:38:08.221Z,61.30
2018-04-13T01:39:08.231Z,62.40
2018-04-13T01:40:08.246Z,62.30
2018-04-13T01:41:08.263Z,62.50
2018-04-13T01:42:08.277Z,60.80
2018-04-13T01:43:08.294Z,61.60
2018-04-13T01:44:08.312Z,60.50
2018-04-13T01:45:08.326Z,58.80
2018-04-13T01:46:08.340Z,60.70
2018-04-13T01:47:08.360Z,58.90
2018-04-13T01:48:08.374Z,61.30
2018-04-13T01:49:08.389Z,60.20
2018-04-13T01:50:08.406Z,61.30
2018-04-13T01:51:08.429Z,58.90
2018-04-13T01:52:08.440Z,60.00
2018-04-13T01:53:08.454Z,60.10
2018-04-13T01:54:08.469Z,62.40
2018-04-13T01:55:08.487Z,62.00
2018-04-13T01:56:08.502Z,61.90
2018-04-13T01:57:08.518Z,60.60
2018-04-13T01:58:08.540Z,63.20
2018-04-13T01:59:08.555Z,59.30
2018-04-13T02:00:08.568Z,63.70
2018-04-13T02:01:08.585Z,59.60
2018-04-13T02:02:08.601Z,62.10
2018-04-13T02:03:08.619Z,62.70
2018-04-13T02:04:08.652Z,61.90
2018-04-13T02:05:08.675Z,62.50
2018-04-13T02:06:08.663Z,60.40
2018-04-13T02:07:08.679Z,60.80
2018-04-13T02:08:08.699Z,60.90
2018-04-13T02:09:08.711Z,60.50
2018-04-13T02:10:08.726Z,60.20
2018-04-13T02:11:08.742Z,58.50
2018-04-13T02:12:08.760Z,59.60
2018-04-13T02:13:08.779Z,60.60
2018-04-13T02:14:08.790Z,60.60
2018-04-13T02:15:08.808Z,61.80
2018-04-13T02:16:08.825Z,60.00
2018-04-13T02:17:08.839Z,60.80
2018-04-13T02:18:08.860Z,61.10
2018-04-13T02:19:08.870Z,60.50
2018-04-13T02:20:08.889Z,61.20
2018-04-13T02:21:08.903Z,60.80
2018-04-13T02:22:08.918Z,60.00
2018-04-13T02:23:08.935Z,59.20
2018-04-13T02:24:08.952Z,60.90
2018-04-13T02:25:08.966Z,61.30
2018-04-13T02:26:08.983Z,60.30
2018-04-13T02:27:08.999Z,60.60
2018-04-13T02:28:09.019Z,59.00
2018-04-13T02:29:09.031Z,59.80
2018-04-13T02:30:09.060Z,61.30
2018-04-13T02:31:09.434Z,59.40
2018-04-13T02:32:09.079Z,60.10
2018-04-13T02:33:09.096Z,58.70
2018-04-13T02:34:09.109Z,59.50
2018-04-13T02:35:09.126Z,60.40
2018-04-13T02:36:09.144Z,60.80
2018-04-13T02:37:09.160Z,61.30
2018-04-13T02:38:09.172Z,61.30
2018-04-13T02:39:09.190Z,59.40
2018-04-13T02:40:09.209Z,62.00
2018-04-13T02:41:09.222Z,60.10
2018-04-13T02:42:09.238Z,62.50
2018-04-13T02:43:09.254Z,61.70
2018-04-13T02:44:09.268Z,59.90
2018-04-13T02:45:09.286Z,60.70
2018-04-13T02:46:09.302Z,59.40
2018-04-13T02:47:09.319Z,60.40
2018-04-13T02:48:09.336Z,60.20
2018-04-13T02:49:09.349Z,59.90
2018-04-13T02:50:09.364Z,59.10
2018-04-13T02:51:09.380Z,60.90
2018-04-13T02:52:09.395Z,58.90
2018-04-13T02:53:09.418Z,57.90
2018-04-13T02:54:09.427Z,58.40
2018-04-13T02:55:09.443Z,59.20
2018-04-13T02:56:09.458Z,60.80
2018-04-13T02:57:09.474Z,59.20
2018-04-13T02:58:09.490Z,59.80
2018-04-13T02:59:09.506Z,59.20
2018-04-13T03:00:09.522Z,58.40
2018-04-13T03:01:09.537Z,59.50
2018-04-13T03:02:09.553Z,58.60
2018-04-13T03:03:09.571Z,57.50
2018-04-13T03:04:09.585Z,59.30
2018-04-13T03:05:09.600Z,57.60
2018-04-13T03:06:09.617Z,57.30
2018-04-13T03:07:09.633Z,57.80
2018-04-13T03:08:09.647Z,57.50
2018-04-13T03:09:09.663Z,56.50
2018-04-13T03:10:09.680Z,57.30
2018-04-13T03:11:09.697Z,57.30
2018-04-13T03:12:09.713Z,58.60
2018-04-13T03:13:09.730Z,55.50
2018-04-13T03:14:09.744Z,57.10
2018-04-13T03:15:09.762Z,56.20
2018-04-13T03:16:09.776Z,58.40
2018-04-13T03:17:09.792Z,57.30
2018-04-13T03:18:09.809Z,57.80
2018-04-13T03:19:09.826Z,59.50
2018-04-13T03:20:09.839Z,58.00
2018-04-13T03:21:09.858Z,58.70
2018-04-13T03:22:09.883Z,56.60
2018-04-13T03:23:09.987Z,56.70
2018-04-13T03:24:09.905Z,57.60
2018-04-13T03:25:09.917Z,58.90
2018-04-13T03:26:09.932Z,58.00
2018-04-13T03:27:09.951Z,58.70
2018-04-13T03:28:09.966Z,58.40
2018-04-13T03:29:09.981Z,58.70
2018-04-13T03:30:09.997Z,58.50
2018-04-13T03:31:10.027Z,57.70
2018-04-13T03:32:10.029Z,58.70
2018-04-13T03:33:10.049Z,57.90
2018-04-13T03:34:10.061Z,58.80
2018-04-13T03:35:10.074Z,60.70
2018-04-13T03:36:10.092Z,60.10
2018-04-13T03:37:10.700Z,59.50
2018-04-13T03:38:10.368Z,59.40
2018-04-13T03:39:10.238Z,59.00
2018-04-13T03:40:10.159Z,59.10
2018-04-13T03:41:10.168Z,60.30
2018-04-13T03:42:10.242Z,58.70
2018-04-13T03:43:10.199Z,59.50
2018-04-13T03:44:10.218Z,59.60
2018-04-13T03:45:10.228Z,60.00
2018-04-13T03:46:10.240Z,58.90
2018-04-13T03:47:10.307Z,57.30
2018-04-13T03:48:10.272Z,57.10
2018-04-13T03:49:10.287Z,57.60
2018-04-13T03:50:10.308Z,56.60
2018-04-13T03:51:10.335Z,57.20
2018-04-13T03:52:10.335Z,56.00
2018-04-13T03:53:10.350Z,56.80
2018-04-13T03:54:10.367Z,57.60
2018-04-13T03:55:10.385Z,56.50
2018-04-13T03:56:10.398Z,57.90
2018-04-13T03:57:10.412Z,57.80
2018-04-13T03:58:10.429Z,57.30
2018-04-13T03:59:10.443Z,57.10
2018-04-13T04:00:10.459Z,55.80
2018-04-13T04:01:10.473Z,57.20
2018-04-13T04:02:10.541Z,55.20
2018-04-13T04:03:10.506Z,56.90
2018-04-13T04:04:10.523Z,56.60
2018-04-13T04:05:10.538Z,57.10
2018-04-13T04:06:10.558Z,57.30
2018-04-13T04:07:10.569Z,56.00
2018-04-13T04:08:10.588Z,55.00
2018-04-13T04:09:10.607Z,56.40
2018-04-13T04:10:10.621Z,56.30
2018-04-13T04:11:10.640Z,57.50
2018-04-13T04:12:10.648Z,58.80
2018-04-13T04:13:10.665Z,58.50
2018-04-13T04:14:10.679Z,58.20
2018-04-13T04:15:10.698Z,58.10
2018-04-13T04:16:10.710Z,60.20
2018-04-13T04:17:10.725Z,59.30
2018-04-13T04:18:10.740Z,60.70
2018-04-13T04:19:10.758Z,58.40
2018-04-13T04:20:10.778Z,58.30
2018-04-13T04:21:10.789Z,64.50
2018-04-13T04:22:10.805Z,61.00
2018-04-13T04:23:10.825Z,57.80
2018-04-13T04:24:10.880Z,58.10
2018-04-13T04:25:10.856Z,60.30
2018-04-13T04:26:10.867Z,58.10
2018-04-13T04:27:10.882Z,58.80
2018-04-13T04:28:10.902Z,57.60
2018-04-13T04:29:10.914Z,56.50
2018-04-13T04:30:10.928Z,57.40
2018-04-13T04:31:10.949Z,58.70
2018-04-13T04:32:10.962Z,58.60
2018-04-13T04:33:10.977Z,57.50
2018-04-13T04:34:10.993Z,60.60
2018-04-13T04:35:11.007Z,58.00
2018-04-13T04:36:11.028Z,58.20
2018-04-13T04:37:11.041Z,57.50
2018-04-13T04:38:11.054Z,56.70
2018-04-13T04:39:11.070Z,57.00
2018-04-13T04:40:11.086Z,58.60
2018-04-13T04:41:11.101Z,59.80
2018-04-13T04:42:11.121Z,61.10
2018-04-13T04:43:11.133Z,58.40
2018-04-13T04:44:11.148Z,59.20
2018-04-13T04:45:11.162Z,59.60
2018-04-13T04:46:11.184Z,60.40
2018-04-13T04:47:11.202Z,59.80
2018-04-13T04:48:11.213Z,59.20
2018-04-13T04:49:11.233Z,58.90
2018-04-13T04:50:11.242Z,63.00
2018-04-13T04:51:11.258Z,61.80
2018-04-13T04:52:11.276Z,63.80
2018-04-13T04:53:11.294Z,63.70
2018-04-13T04:54:11.309Z,63.90
2018-04-13T04:55:11.322Z,63.40
2018-04-13T04:56:11.339Z,63.90
2018-04-13T04:57:11.353Z,64.30
2018-04-13T04:58:11.370Z,67.90
2018-04-13T04:59:11.390Z,68.80
2018-04-13T05:00:11.403Z,70.60
2018-04-13T05:01:11.416Z,70.90
2018-04-13T05:02:11.438Z,69.50
2018-04-13T05:03:11.454Z,69.80
2018-04-13T05:04:11.464Z,70.40
2018-04-13T05:05:11.477Z,69.70
2018-04-13T05:06:11.503Z,68.80
2018-04-13T05:07:11.509Z,68.40
2018-04-13T05:08:11.526Z,68.50
2018-04-13T05:09:11.540Z,67.20
2018-04-13T05:10:11.557Z,68.60
2018-04-13T05:11:11.586Z,67.60
2018-04-13T05:12:11.590Z,68.80
2018-04-13T05:13:11.610Z,68.20
2018-04-13T05:14:11.622Z,69.50
2018-04-13T05:15:11.637Z,68.20
2018-04-13T05:16:11.656Z,69.90
2018-04-13T05:17:11.680Z,70.60
2018-04-13T05:18:11.690Z,69.40
2018-04-13T05:19:11.702Z,68.80
2018-04-13T05:20:11.716Z,68.10
2018-04-13T05:21:11.787Z,69.60
2018-04-13T05:22:11.755Z,68.80
2018-04-13T05:23:11.777Z,69.30
2018-04-13T05:24:11.798Z,70.70
2018-04-13T05:25:11.795Z,70.00
2018-04-13T05:26:11.810Z,70.30
2018-04-13T05:27:11.826Z,72.40
2018-04-13T05:28:11.843Z,70.70
2018-04-13T05:29:11.883Z,69.70
2018-04-13T05:30:11.876Z,72.00
2018-04-13T05:31:11.891Z,70.70
2018-04-13T05:32:11.906Z,72.90
2018-04-13T05:33:11.925Z,69.90
2018-04-13T05:34:11.937Z,70.70
2018-04-13T05:35:12.044Z,71.60
2018-04-13T05:36:11.973Z,71.80
2018-04-13T05:37:11.984Z,70.70
2018-04-13T05:38:12.001Z,70.80
2018-04-13T05:39:12.018Z,71.00
2018-04-13T05:40:12.033Z,71.30
2018-04-13T05:41:12.048Z,70.40
2018-04-13T05:42:12.070Z,72.20
2018-04-13T05:43:12.085Z,71.90
2018-04-13T05:44:12.097Z,72.10
2018-04-13T05:45:12.110Z,72.00
2018-04-13T05:46:12.127Z,73.20
2018-04-13T05:47:12.144Z,71.60
2018-04-13T05:48:12.160Z,70.50
2018-04-13T05:49:12.181Z,72.40
2018-04-13T05:50:12.190Z,71.40
2018-04-13T05:51:12.208Z,72.50
2018-04-13T05:52:12.222Z,73.60
2018-04-13T05:53:12.237Z,70.90
2018-04-13T05:54:12.253Z,73.50
2018-04-13T05:55:12.269Z,73.60
2018-04-13T05:56:12.285Z,74.10
2018-04-13T05:57:12.304Z,75.80
2018-04-13T05:58:12.317Z,72.40
2018-04-13T05:59:12.344Z,74.50
2018-04-13T06:00:12.371Z,74.00
2018-04-13T06:01:12.364Z,72.90
2018-04-13T06:02:12.380Z,71.50
2018-04-13T06:03:12.396Z,71.50
2018-04-13T06:04:12.413Z,72.60
2018-04-13T06:05:12.427Z,74.00
2018-04-13T06:06:12.444Z,73.90
2018-04-13T06:07:12.460Z,69.60
2018-04-13T06:08:12.475Z,68.80
2018-04-13T06:09:12.490Z,69.40
2018-04-13T06:10:12.506Z,69.80
2018-04-13T06:11:12.529Z,69.90
2018-04-13T06:12:12.539Z,71.20
2018-04-13T06:13:12.553Z,70.90
2018-04-13T06:14:12.573Z,70.00
2018-04-13T06:15:13.083Z,70.90
2018-04-13T06:16:12.603Z,68.80
2018-04-13T06:17:12.623Z,70.70
2018-04-13T06:18:12.664Z,69.70
2018-04-13T06:19:12.651Z,67.60
2018-04-13T06:20:12.674Z,69.00
2018-04-13T06:21:12.686Z,67.80
2018-04-13T06:22:12.702Z,66.20
2018-04-13T06:23:12.718Z,66.70
2018-04-13T06:24:12.738Z,63.90
2018-04-13T06:25:12.746Z,65.10
2018-04-13T06:26:12.763Z,64.70
2018-04-13T06:27:12.782Z,64.70
2018-04-13T06:28:12.797Z,64.50
2018-04-13T06:29:12.811Z,64.40
2018-04-13T06:30:12.870Z,61.40
2018-04-13T06:31:12.851Z,61.70
2018-04-13T06:32:12.864Z,61.40
2018-04-13T06:33:12.880Z,63.80
2018-04-13T06:34:12.893Z,60.80
2018-04-13T06:35:12.913Z,61.50
2018-04-13T06:36:12.929Z,60.90
2018-04-13T06:37:12.996Z,63.20
2018-04-13T06:38:12.973Z,59.50
2018-04-13T06:39:12.975Z,60.60
2018-04-13T06:40:12.992Z,60.10
2018-04-13T06:41:13.005Z,60.40
2018-04-13T06:42:13.399Z,59.90
2018-04-13T06:43:13.041Z,61.30
2018-04-13T06:44:13.054Z,60.60
2018-04-13T06:45:13.071Z,61.10
2018-04-13T06:46:13.089Z,60.10
2018-04-13T06:47:13.104Z,59.70
2018-04-13T06:48:13.120Z,58.20
2018-04-13T06:49:13.186Z,60.40
2018-04-13T06:50:13.304Z,57.50
2018-04-13T06:51:13.272Z,58.40
2018-04-13T06:52:13.181Z,58.60
2018-04-13T06:53:13.208Z,59.00
2018-04-13T06:54:13.214Z,59.90
2018-04-13T06:55:13.229Z,61.70
2018-04-13T06:56:13.246Z,60.00
2018-04-13T06:57:13.262Z,58.50
2018-04-13T06:58:13.278Z,57.80
2018-04-13T06:59:13.354Z,60.30
2018-04-13T07:00:13.312Z,60.20
2018-04-13T07:01:13.350Z,59.80
2018-04-13T07:02:13.341Z,60.70
2018-04-13T07:03:13.363Z,60.10
2018-04-13T07:04:13.376Z,60.70
2018-04-13T07:05:13.392Z,59.00
2018-04-13T07:06:13.415Z,60.40
2018-04-13T07:07:13.429Z,59.10
2018-04-13T07:08:13.437Z,58.70
2018-04-13T07:09:13.485Z,57.40
2018-04-13T07:10:13.491Z,58.10
2018-04-13T07:11:13.491Z,58.20
2018-04-13T07:12:13.505Z,58.00
2018-04-13T07:13:13.521Z,58.30
2018-04-13T07:14:13.769Z,58.10
2018-04-13T07:15:13.785Z,57.60
2018-04-13T07:16:13.691Z,57.00
2018-04-13T07:17:13.639Z,55.10
2018-04-13T07:18:13.601Z,56.60
2018-04-13T07:19:13.632Z,54.40
2018-04-13T07:20:13.637Z,55.50
2018-04-13T07:21:13.651Z,55.60
2018-04-13T07:22:13.675Z,54.30
2018-04-13T07:23:13.682Z,55.40
2018-04-13T07:24:13.909Z,53.80
2018-04-13T07:25:13.719Z,52.40
2018-04-13T07:26:13.754Z,53.00
2018-04-13T07:27:13.753Z,54.30
2018-04-13T07:28:13.764Z,53.30
2018-04-13T07:29:13.782Z,52.40
2018-04-13T07:30:13.808Z,51.50
2018-04-13T07:31:13.817Z,52.00
2018-04-13T07:32:13.833Z,52.90
2018-04-13T07:33:13.850Z,53.70
2018-04-13T07:34:13.868Z,52.80
2018-04-13T07:35:13.882Z,52.00
2018-04-13T07:36:13.920Z,53.20
2018-04-13T07:37:13.928Z,52.40
2018-04-13T07:38:13.947Z,52.50
2018-04-13T07:39:13.945Z,54.10
2018-04-13T07:40:13.961Z,52.90
2018-04-13T07:41:13.985Z,51.80
2018-04-13T07:42:15.101Z,52.30
2018-04-13T07:43:14.027Z,52.40
2018-04-13T07:44:14.054Z,52.70
2018-04-13T07:45:14.045Z,54.30
2018-04-13T07:46:14.065Z,53.30
2018-04-13T07:47:14.086Z,53.50
2018-04-13T07:48:14.103Z,53.00
2018-04-13T07:49:14.110Z,55.00
2018-04-13T07:50:14.293Z,54.30
2018-04-13T07:51:14.142Z,53.90
2018-04-13T07:52:14.158Z,55.10
2018-04-13T07:53:14.179Z,55.20
2018-04-13T07:54:14.190Z,55.40
2018-04-13T07:55:14.208Z,56.20
2018-04-13T07:56:14.231Z,56.80
2018-04-13T07:57:14.310Z,55.90
2018-04-13T07:58:14.252Z,54.90
2018-04-13T07:59:14.280Z,55.00
2018-04-13T08:00:14.294Z,54.50
2018-04-13T08:01:14.565Z,55.00
2018-04-13T08:02:14.321Z,53.90
2018-04-13T08:03:14.344Z,55.40
2018-04-13T08:04:14.350Z,54.70
2018-04-13T08:05:14.371Z,53.70
2018-04-13T08:06:14.386Z,54.90
2018-04-13T08:07:14.410Z,54.50
2018-04-13T08:08:14.417Z,54.80
2018-04-13T08:09:14.446Z,56.10
2018-04-13T08:10:14.703Z,55.40
2018-04-13T08:11:14.476Z,53.80
2018-04-13T08:12:14.487Z,52.10
2018-04-13T08:13:14.501Z,53.70
2018-04-13T08:14:14.516Z,54.30
2018-04-13T08:15:14.535Z,53.30
2018-04-13T08:16:14.554Z,53.00
2018-04-13T08:17:14.563Z,54.80
2018-04-13T08:18:14.613Z,54.20
2018-04-13T08:19:14.602Z,55.50
2018-04-13T08:20:14.614Z,53.00
2018-04-13T08:21:14.636Z,55.00
2018-04-13T08:22:14.660Z,54.40
2018-04-13T08:23:14.664Z,53.70
2018-04-13T08:24:14.687Z,55.50
2018-04-13T08:25:14.871Z,55.70
2018-04-13T08:26:14.715Z,54.90
2018-04-13T08:27:14.738Z,55.90
2018-04-13T08:28:14.751Z,54.90
2018-04-13T08:29:14.819Z,57.30
2018-04-13T08:30:14.779Z,57.40
2018-04-13T08:31:14.812Z,55.40
2018-04-13T08:32:14.818Z,55.80
2018-04-13T08:33:14.834Z,56.30
2018-04-13T08:34:14.845Z,57.50
2018-04-13T08:35:14.876Z,57.60
2018-04-13T08:36:14.884Z,56.20
2018-04-13T08:37:14.902Z,57.10
2018-04-13T08:38:15.062Z,55.00
2018-04-13T08:39:14.932Z,58.40
2018-04-13T08:40:14.950Z,57.00
2018-04-13T08:41:14.965Z,56.00
2018-04-13T08:42:14.984Z,56.50
2018-04-13T08:43:15.054Z,57.60
2018-04-13T08:44:15.043Z,55.80
2018-04-13T08:45:15.033Z,55.40
2018-04-13T08:46:15.050Z,54.70
2018-04-13T08:47:15.067Z,56.00
2018-04-13T08:48:15.118Z,57.40
2018-04-13T08:49:15.222Z,56.00
2018-04-13T08:50:15.179Z,57.00
2018-04-13T08:51:15.134Z,53.20
2018-04-13T08:52:15.154Z,56.80
2018-04-13T08:53:15.168Z,55.10
2018-04-13T08:54:15.192Z,53.50
2018-04-13T08:55:15.204Z,52.70
2018-04-13T08:56:15.223Z,55.00
2018-04-13T08:57:15.237Z,54.60
2018-04-13T08:58:15.254Z,51.10
2018-04-13T08:59:15.271Z,52.70
2018-04-13T09:00:15.662Z,53.50
2018-04-13T09:01:15.338Z,51.10
2018-04-13T09:02:15.322Z,50.00
2018-04-13T09:03:15.342Z,51.50
2018-04-13T09:04:15.356Z,51.70
2018-04-13T09:05:15.372Z,51.80
2018-04-13T09:06:15.389Z,50.80
2018-04-13T09:07:15.407Z,51.20
2018-04-13T09:08:15.424Z,51.30
2018-04-13T09:09:15.443Z,50.00
2018-04-13T09:10:15.458Z,49.00
2018-04-13T09:12:15.494Z,47.50
2018-04-13T09:13:15.529Z,46.40
2018-04-13T09:14:15.574Z,45.50
2018-04-13T09:15:15.547Z,42.60
2018-04-13T09:16:15.563Z,45.80
2018-04-13T09:17:15.581Z,44.90
2018-04-13T09:18:15.596Z,43.50
2018-04-13T09:19:15.616Z,42.80
2018-04-13T09:20:15.630Z,40.10
2018-04-13T09:21:15.647Z,40.30
2018-04-13T09:22:15.669Z,38.70
2018-04-13T09:23:15.683Z,38.00
2018-04-13T09:24:15.702Z,37.30
2018-04-13T09:25:15.716Z,35.70
2018-04-13T09:26:15.735Z,34.30
2018-04-13T09:27:15.756Z,33.40
2018-04-13T09:28:15.773Z,33.10
2018-04-13T09:29:15.785Z,32.70
2018-04-13T09:30:15.804Z,30.40
2018-04-13T09:31:15.822Z,30.90
2018-04-13T09:32:15.838Z,30.70
2018-04-13T09:33:16.307Z,30.70
2018-04-13T09:34:15.872Z,29.50
2018-04-13T09:35:15.898Z,29.90
2018-04-13T09:36:16.738Z,30.10
2018-04-13T09:37:15.924Z,31.40
2018-04-13T09:38:15.950Z,28.50
2018-04-13T09:39:16.162Z,29.10
2018-04-13T09:40:15.978Z,30.40
2018-04-13T09:41:15.996Z,28.60
2018-04-13T09:42:16.014Z,30.30
2018-04-13T09:43:16.032Z,28.90
2018-04-13T09:44:16.047Z,28.40
2018-04-13T09:45:16.064Z,27.70
2018-04-13T09:46:16.086Z,28.10
2018-04-13T09:47:16.100Z,28.10
2018-04-13T09:48:16.117Z,28.80
2018-04-13T09:49:16.134Z,28.20
2018-04-13T09:50:16.152Z,27.60
2018-04-13T09:51:16.170Z,26.50
2018-04-13T09:52:16.189Z,26.60
2018-04-13T09:53:16.207Z,26.70
2018-04-13T09:54:16.221Z,26.20
2018-04-13T09:55:16.240Z,26.10
2018-04-13T09:56:16.257Z,25.90
2018-04-13T09:57:16.503Z,24.60
2018-04-13T09:58:16.293Z,25.70
2018-04-13T09:59:16.311Z,26.50
2018-04-13T10:00:16.328Z,26.20
2018-04-13T10:01:16.345Z,25.90
2018-04-13T10:02:16.362Z,25.20
2018-04-13T10:03:16.442Z,25.30
2018-04-13T10:04:18.528Z,25.10
2018-04-13T10:05:16.416Z,26.20
2018-04-13T10:06:16.436Z,25.80
2018-04-13T10:07:16.474Z,25.00
2018-04-13T10:08:16.471Z,25.80
2018-04-13T10:09:16.497Z,25.50
2018-04-13T10:10:16.505Z,24.80
2018-04-13T10:11:16.527Z,24.20
2018-04-13T10:12:16.549Z,24.00
2018-04-13T10:13:16.562Z,24.10
2018-04-13T10:14:16.588Z,24.30
2018-04-13T10:15:16.596Z,23.80
2018-04-13T10:16:16.617Z,24.60
2018-04-13T10:17:16.634Z,24.40
2018-04-13T10:18:16.650Z,24.80
2018-04-13T10:19:16.672Z,25.70
2018-04-13T10:20:16.690Z,24.20
2018-04-13T10:21:16.708Z,23.90
2018-04-13T10:22:16.722Z,24.10
2018-04-13T10:23:16.742Z,22.20
2018-04-13T10:24:16.757Z,22.90
2018-04-13T10:25:16.779Z,21.70
2018-04-13T10:26:16.796Z,21.00
2018-04-13T10:27:16.816Z,21.40
2018-04-13T10:28:16.831Z,21.60
2018-04-13T10:29:16.848Z,22.00
2018-04-13T10:30:16.869Z,21.70
2018-04-13T10:31:16.882Z,22.60
2018-04-13T10:32:16.904Z,21.70
2018-04-13T10:33:16.921Z,22.40
2018-04-13T10:34:16.944Z,23.20
2018-04-13T10:35:16.955Z,23.50
2018-04-13T10:36:16.975Z,22.30
2018-04-13T10:37:16.993Z,21.70
2018-04-13T10:38:17.011Z,21.90
2018-04-13T10:39:17.030Z,22.30
2018-04-13T10:40:17.053Z,22.10
2018-04-13T10:41:17.061Z,21.50
2018-04-13T10:42:17.080Z,20.50
2018-04-13T10:43:17.117Z,20.60
2018-04-13T10:44:17.666Z,21.20
2018-04-13T10:45:17.134Z,20.80
2018-04-13T10:46:17.152Z,21.30
2018-04-13T10:47:17.171Z,21.80
2018-04-13T10:48:17.190Z,22.40
2018-04-13T10:49:17.512Z,20.70
2018-04-13T10:50:17.229Z,21.70
2018-04-13T10:51:17.244Z,20.90
2018-04-13T10:52:17.260Z,20.20
2018-04-13T10:53:17.282Z,21.30
2018-04-13T10:54:17.298Z,21.20
2018-04-13T10:55:17.314Z,21.80
2018-04-13T10:56:17.338Z,21.30
2018-04-13T10:57:17.453Z,21.00
2018-04-13T10:58:17.372Z,20.90
2018-04-13T10:59:17.389Z,20.90
2018-04-13T11:00:17.406Z,20.30
2018-04-13T11:01:17.430Z,18.30
2018-04-13T11:02:17.441Z,16.50
2018-04-13T11:03:17.460Z,17.40
2018-04-13T11:04:17.487Z,18.50
2018-04-13T11:05:17.501Z,17.10
2018-04-13T11:06:17.519Z,17.80
2018-04-13T11:07:17.541Z,16.60
2018-04-13T11:08:17.831Z,16.80
2018-04-13T11:09:17.650Z,16.20
2018-04-13T11:10:18.211Z,16.20
2018-04-13T11:11:17.978Z,16.40
2018-04-13T11:12:17.621Z,16.50
2018-04-13T11:13:17.639Z,15.90
2018-04-13T11:14:17.662Z,16.30
2018-04-13T11:15:17.684Z,15.60
2018-04-13T11:16:17.843Z,15.50
2018-04-13T11:17:18.150Z,14.90
2018-04-13T11:19:17.741Z,14.80
2018-04-13T11:20:17.769Z,14.40
2018-04-13T11:21:18.133Z,15.30
2018-04-13T11:22:17.793Z,14.30
2018-04-13T11:23:17.913Z,14.40
2018-04-13T11:24:17.837Z,13.70
2018-04-13T11:25:17.846Z,14.20
2018-04-13T11:26:17.867Z,13.60
2018-04-13T11:27:17.882Z,13.40
2018-04-13T11:28:17.901Z,14.20
2018-04-13T11:29:17.920Z,13.70
2018-04-13T11:30:17.937Z,13.60
2018-04-13T11:31:17.960Z,14.30
2018-04-13T11:32:17.972Z,14.00
2018-04-13T11:33:17.996Z,13.30
2018-04-13T11:34:18.007Z,13.50
2018-04-13T11:35:18.031Z,13.50
2018-04-13T11:36:18.046Z,11.60
2018-04-13T11:37:18.071Z,13.40
2018-04-13T11:38:18.094Z,12.20
2018-04-13T11:39:18.097Z,12.20
2018-04-13T11:40:18.238Z,11.00
2018-04-13T11:41:18.253Z,11.40
2018-04-13T11:42:18.352Z,11.30
2018-04-13T11:43:18.169Z,10.60
2018-04-13T11:44:18.187Z,11.10
2018-04-13T11:45:18.203Z,11.20
2018-04-13T11:46:18.226Z,10.30
2018-04-13T11:47:18.241Z,9.50
2018-04-13T11:48:18.261Z,9.40
2018-04-13T11:49:18.280Z,9.90
2018-04-13T11:50:18.303Z,10.00
2018-04-13T11:51:18.313Z,9.40
2018-04-13T11:52:18.337Z,9.80
2018-04-13T11:53:18.349Z,9.60
2018-04-13T11:54:18.369Z,10.40
2018-04-13T11:55:18.384Z,10.00
2018-04-13T11:56:18.402Z,10.00
2018-04-13T11:57:18.419Z,10.60
2018-04-13T11:58:18.438Z,10.00
2018-04-13T11:59:18.459Z,9.90
2018-04-13T12:00:18.472Z,10.70
2018-04-13T12:01:18.490Z,11.00
2018-04-13T12:02:18.510Z,10.80
2018-04-13T12:03:18.525Z,11.10
2018-04-13T12:04:18.544Z,11.00
2018-04-13T12:05:18.561Z,10.90
2018-04-13T12:06:18.584Z,11.50
2018-04-13T12:07:18.596Z,10.90
2018-04-13T12:08:18.615Z,11.60
2018-04-13T12:09:18.635Z,12.00
2018-04-13T12:10:18.653Z,12.10
2018-04-13T12:11:18.669Z,11.80
2018-04-13T12:12:18.683Z,12.20
2018-04-13T12:13:18.702Z,11.90
2018-04-13T12:14:18.723Z,11.70
2018-04-13T12:15:18.750Z,12.10
2018-04-13T12:16:18.758Z,12.00
2018-04-13T12:17:18.770Z,12.10
2018-04-13T12:18:18.788Z,11.50
2018-04-13T12:19:18.805Z,12.70
2018-04-13T12:20:18.823Z,12.80
2018-04-13T12:21:18.839Z,11.30
2018-04-13T12:22:18.858Z,11.70
2018-04-13T12:23:18.875Z,12.50
2018-04-13T12:24:18.891Z,12.30
2018-04-13T12:25:18.907Z,13.20
2018-04-13T12:26:18.934Z,13.20
2018-04-13T12:27:18.956Z,12.50
2018-04-13T12:28:18.960Z,12.00
2018-04-13T12:29:18.975Z,12.30
2018-04-13T12:30:18.993Z,13.40
2018-04-13T12:31:19.051Z,12.50
2018-04-13T12:32:19.031Z,13.10
2018-04-13T12:33:19.044Z,13.00
2018-04-13T12:34:19.063Z,13.20
2018-04-13T12:35:19.076Z,13.90
2018-04-13T12:36:19.093Z,14.40
2018-04-13T12:37:19.109Z,13.90
2018-04-13T12:38:19.184Z,14.10
2018-04-13T12:39:19.147Z,14.70
2018-04-13T12:40:19.161Z,13.80
2018-04-13T12:41:19.176Z,14.10
2018-04-13T12:42:19.219Z,15.00
2018-04-13T12:43:19.209Z,14.80
2018-04-13T12:44:19.229Z,14.10
2018-04-13T12:45:19.243Z,15.10
2018-04-13T12:46:19.259Z,15.10
2018-04-13T12:47:19.280Z,14.40
2018-04-13T12:48:19.292Z,14.50
2018-04-13T12:49:19.473Z,14.50
2018-04-13T12:50:19.331Z,14.80
2018-04-13T12:51:19.343Z,15.40
2018-04-13T12:52:19.360Z,15.30
2018-04-13T12:53:19.402Z,15.10
2018-04-13T12:54:19.527Z,15.60